Time,TemperatureF,DewpointF,PressureIn,WindDirection,WindDirectionDegrees,WindSpeedMPH,WindSpeedGustMPH,Humidity,HourlyPrecipIn,Conditions,Clouds,dailyrainin,SoftwareType,DateUTC
2013-08-07 00:22:00,58.0,33.0,-100.00,NE,52,8.0,13.0,39,0.00,,,0.00,,2013-08-07 06:22:00,
2013-08-07 00:32:00,58.0,33.0,-100.00,NE,52,8.0,13.0,39,0.00,,,0.00,,2013-08-07 06:32:00,
2013-08-07 00:43:00,58.0,33.0,-100.00,NE,52,8.0,13.0,39,0.00,,,0.00,,2013-08-07 06:43:00,
2013-08-07 00:51:00,56.0,33.0,-100.00,NE,44,7.0,15.0,41,0.00,,,0.00,,2013-08-07 06:51:00,
2013-08-07 01:21:00,56.0,33.0,-100.00,NE,44,7.0,15.0,41,0.00,,,0.00,,2013-08-07 07:21:00,
2013-08-07 01:33:00,56.0,33.0,-100.00,NE,44,7.0,15.0,41,0.00,,,0.00,,2013-08-07 07:33:00,
2013-08-07 01:43:00,56.0,33.0,-100.00,NE,44,7.0,15.0,41,0.00,,,0.00,,2013-08-07 07:43:00,
2013-08-07 01:51:00,54.0,33.0,-100.00,NE,53,9.0,16.0,44,0.00,,,0.00,,2013-08-07 07:51:00,
2013-08-07 02:22:00,54.0,33.0,-100.00,NE,53,9.0,16.0,44,0.00,,,0.00,,2013-08-07 08:22:00,
2013-08-07 02:32:00,54.0,33.0,-100.00,NE,53,9.0,16.0,44,0.00,,,0.00,,2013-08-07 08:32:00,
2013-08-07 02:43:00,54.0,33.0,-100.00,NE,53,9.0,16.0,44,0.00,,,0.00,,2013-08-07 08:43:00,
2013-08-07 02:51:00,52.0,32.0,-100.00,NE,55,9.0,16.0,47,0.00,,,-99.99,,2013-08-07 08:51:00,
2013-08-07 03:22:00,52.0,32.0,-100.00,NE,55,9.0,16.0,47,0.00,,,-99.99,,2013-08-07 09:22:00,
2013-08-07 03:32:00,52.0,32.0,-100.00,NE,55,9.0,16.0,47,0.00,,,-99.99,,2013-08-07 09:32:00,
2013-08-07 03:43:00,52.0,32.0,-100.00,NE,55,9.0,16.0,47,0.00,,,-99.99,,2013-08-07 09:43:00,
2013-08-07 03:51:00,50.0,31.0,-100.00,NE,53,7.0,16.0,48,0.00,,,0.00,,2013-08-07 09:51:00,
2013-08-07 04:21:00,50.0,31.0,-100.00,NE,53,7.0,16.0,48,0.00,,,0.00,,2013-08-07 10:21:00,
2013-08-07 04:32:00,50.0,31.0,-100.00,NE,53,7.0,16.0,48,0.00,,,0.00,,2013-08-07 10:32:00,
2013-08-07 04:43:00,50.0,31.0,-100.00,NE,53,7.0,16.0,48,0.00,,,0.00,,2013-08-07 10:43:00,
2013-08-07 04:51:00,49.0,31.0,-100.00,NE,45,7.0,17.0,50,0.00,,,0.00,,2013-08-07 10:51:00,
2013-08-07 05:22:00,49.0,31.0,-100.00,NE,45,7.0,17.0,50,0.00,,,0.00,,2013-08-07 11:22:00,
2013-08-07 05:32:00,49.0,31.0,-100.00,NE,45,7.0,17.0,50,0.00,,,0.00,,2013-08-07 11:32:00,
2013-08-07 05:43:00,49.0,31.0,-100.00,NE,45,7.0,17.0,50,0.00,,,0.00,,2013-08-07 11:43:00,
2013-08-07 05:51:00,45.0,31.0,-100.00,ENE,69,6.0,16.0,57,0.00,,,0.00,,2013-08-07 11:51:00,
2013-08-07 06:22:00,45.0,31.0,-100.00,ENE,69,6.0,16.0,57,0.00,,,0.00,,2013-08-07 12:22:00,
2013-08-07 06:32:00,45.0,31.0,-100.00,ENE,69,6.0,16.0,57,0.00,,,0.00,,2013-08-07 12:32:00,
2013-08-07 06:43:00,45.0,31.0,-100.00,ENE,69,6.0,16.0,57,0.00,,,0.00,,2013-08-07 12:43:00,
2013-08-07 06:51:00,42.0,30.0,-100.00,ENE,62,8.0,15.0,62,0.00,,,0.00,,2013-08-07 12:51:00,
2013-08-07 07:22:00,42.0,30.0,-100.00,ENE,62,8.0,15.0,62,0.00,,,0.00,,2013-08-07 13:22:00,
2013-08-07 07:32:00,42.0,30.0,-100.00,ENE,62,8.0,15.0,62,0.00,,,0.00,,2013-08-07 13:32:00,
2013-08-07 07:44:00,42.0,30.0,-100.00,ENE,62,8.0,15.0,62,0.00,,,0.00,,2013-08-07 13:44:00,
2013-08-07 07:51:00,45.0,31.0,-100.00,NE,56,6.0,13.0,57,0.00,,,0.00,,2013-08-07 13:51:00,
2013-08-07 08:22:00,45.0,31.0,-100.00,NE,56,6.0,13.0,57,0.00,,,0.00,,2013-08-07 14:22:00,
2013-08-07 08:33:00,45.0,31.0,-100.00,NE,56,6.0,13.0,57,0.00,,,0.00,,2013-08-07 14:33:00,
2013-08-07 08:42:00,45.0,31.0,-100.00,NE,56,6.0,13.0,57,0.00,,,0.00,,2013-08-07 14:42:00,
2013-08-07 08:51:00,52.0,33.0,-100.00,ENE,68,2.0,11.0,48,0.00,,,0.00,,2013-08-07 14:51:00,
2013-08-07 09:22:00,52.0,33.0,-100.00,ENE,68,2.0,11.0,48,0.00,,,0.00,,2013-08-07 15:22:00,
2013-08-07 09:33:00,52.0,33.0,-100.00,ENE,68,2.0,11.0,48,0.00,,,0.00,,2013-08-07 15:33:00,
2013-08-07 09:43:00,52.0,33.0,-100.00,ENE,68,2.0,11.0,48,0.00,,,0.00,,2013-08-07 15:43:00,
2013-08-07 09:51:00,64.0,34.0,-100.00,East,100,2.0,5.0,32,0.00,,,0.00,,2013-08-07 15:51:00,
2013-08-07 10:33:00,64.0,34.0,-100.00,East,100,2.0,5.0,32,0.00,,,0.00,,2013-08-07 16:33:00,
2013-08-07 10:43:00,64.0,34.0,-100.00,East,100,2.0,5.0,32,0.00,,,0.00,,2013-08-07 16:43:00,
2013-08-07 10:51:00,72.0,35.0,-100.00,WNW,287,3.0,5.0,26,0.00,,,0.00,,2013-08-07 16:51:00,
2013-08-07 11:33:00,72.0,35.0,-100.00,WNW,287,3.0,5.0,26,0.00,,,0.00,,2013-08-07 17:33:00,
2013-08-07 11:43:00,72.0,35.0,-100.00,WNW,287,3.0,5.0,26,0.00,,,0.00,,2013-08-07 17:43:00,
2013-08-07 13:51:00,86.0,25.0,-100.00,WNW,295,6.0,12.0,11,0.00,,,0.00,,2013-08-07 19:51:00,
2013-08-07 14:22:00,86.0,25.0,-100.00,WNW,295,6.0,12.0,11,0.00,,,0.00,,2013-08-07 20:22:00,
2013-08-07 14:32:00,86.0,25.0,-100.00,WNW,295,6.0,12.0,11,0.00,,,0.00,,2013-08-07 20:32:00,
2013-08-07 14:43:00,86.0,25.0,-100.00,WNW,295,6.0,12.0,11,0.00,,,0.00,,2013-08-07 20:43:00,
2013-08-07 14:51:00,84.0,26.0,-100.00,SW,232,7.0,16.0,12,0.00,,,0.00,,2013-08-07 20:51:00,
2013-08-07 15:22:00,84.0,26.0,-100.00,SW,232,7.0,16.0,12,0.00,,,0.00,,2013-08-07 21:22:00,
2013-08-07 15:32:00,84.0,26.0,-100.00,SW,232,7.0,16.0,12,0.00,,,0.00,,2013-08-07 21:32:00,
2013-08-07 15:43:00,84.0,26.0,-100.00,SW,232,7.0,16.0,12,0.00,,,0.00,,2013-08-07 21:43:00,
2013-08-07 15:51:00,87.0,24.0,-100.00,WSW,249,6.0,20.0,10,0.00,,,0.00,,2013-08-07 21:51:00,
2013-08-07 16:22:00,87.0,24.0,-100.00,WSW,249,6.0,20.0,10,0.00,,,0.00,,2013-08-07 22:22:00,
2013-08-07 16:32:00,87.0,24.0,-100.00,WSW,249,6.0,20.0,10,0.00,,,0.00,,2013-08-07 22:32:00,
2013-08-07 16:43:00,87.0,24.0,-100.00,WSW,249,6.0,20.0,10,0.00,,,0.00,,2013-08-07 22:43:00,
2013-08-07 16:51:00,84.0,24.0,-100.00,West,262,7.0,19.0,11,0.00,,,0.00,,2013-08-07 22:51:00,
2013-08-07 17:22:00,84.0,24.0,-100.00,West,262,7.0,19.0,11,0.00,,,0.00,,2013-08-07 23:22:00,
2013-08-07 17:32:00,84.0,24.0,-100.00,West,262,7.0,19.0,11,0.00,,,0.00,,2013-08-07 23:32:00,
2013-08-07 17:43:00,84.0,24.0,-100.00,West,262,7.0,19.0,11,0.00,,,0.00,,2013-08-07 23:43:00,
2013-08-07 17:51:00,87.0,21.0,-100.00,West,266,5.0,17.0,9,0.00,,,0.00,,2013-08-07 23:51:00,
2013-08-07 18:22:00,87.0,21.0,-100.00,West,266,5.0,17.0,9,0.00,,,0.00,,2013-08-08 00:22:00,
2013-08-07 18:32:00,87.0,21.0,-100.00,West,266,5.0,17.0,9,0.00,,,0.00,,2013-08-08 00:32:00,
2013-08-07 18:42:00,87.0,21.0,-100.00,West,266,5.0,17.0,9,0.00,,,0.00,,2013-08-08 00:42:00,
2013-08-07 19:22:00,85.0,14.0,-100.00,WSW,244,6.0,19.0,7,0.00,,,0.00,,2013-08-08 01:22:00,
2013-08-07 19:51:00,82.0,20.0,-100.00,SW,217,5.0,16.0,10,0.00,,,0.00,,2013-08-08 01:51:00,
2013-08-07 20:22:00,82.0,20.0,-100.00,SW,217,5.0,16.0,10,0.00,,,0.00,,2013-08-08 02:22:00,
2013-08-07 20:32:00,82.0,20.0,-100.00,SW,217,5.0,16.0,10,0.00,,,0.00,,2013-08-08 02:32:00,
2013-08-07 20:42:00,82.0,20.0,-100.00,SW,217,5.0,16.0,10,0.00,,,0.00,,2013-08-08 02:42:00,
2013-08-07 20:51:00,69.0,25.0,-100.00,SSE,157,1.0,7.0,19,0.00,,,0.00,,2013-08-08 02:51:00,
2013-08-07 21:22:00,69.0,25.0,-100.00,SSE,157,1.0,7.0,19,0.00,,,0.00,,2013-08-08 03:22:00,
2013-08-07 21:32:00,69.0,25.0,-100.00,SSE,157,1.0,7.0,19,0.00,,,0.00,,2013-08-08 03:32:00,
2013-08-07 21:43:00,69.0,25.0,-100.00,SSE,157,1.0,7.0,19,0.00,,,0.00,,2013-08-08 03:43:00,
2013-08-07 21:51:00,61.0,24.0,-100.00,South,182,1.0,5.0,24,0.00,,,-99.99,,2013-08-08 03:51:00,
2013-08-07 22:22:00,61.0,24.0,-100.00,South,182,1.0,5.0,24,0.00,,,-99.99,,2013-08-08 04:22:00,
2013-08-07 22:32:00,61.0,24.0,-100.00,South,182,1.0,5.0,24,0.00,,,-99.99,,2013-08-08 04:32:00,
2013-08-07 22:43:00,61.0,24.0,-100.00,South,182,1.0,5.0,24,0.00,,,-99.99,,2013-08-08 04:43:00,
2013-08-07 22:51:00,59.0,28.0,-100.00,ENE,59,6.0,8.0,30,0.00,,,0.00,,2013-08-08 04:51:00,
2013-08-07 23:21:00,59.0,28.0,-100.00,ENE,59,6.0,8.0,30,0.00,,,0.00,,2013-08-08 05:21:00,
2013-08-07 23:33:00,59.0,28.0,-100.00,ENE,59,6.0,8.0,30,0.00,,,0.00,,2013-08-08 05:33:00,
2013-08-07 23:43:00,59.0,28.0,-100.00,ENE,59,6.0,8.0,30,0.00,,,0.00,,2013-08-08 05:43:00,
2013-08-07 23:51:00,56.0,27.0,-100.00,ENE,72,9.0,12.0,33,0.00,,,0.00,,2013-08-08 05:51:00,